Time;durP1;ratioP1;P1;durP2;ratioP2;P2;SDS_P1;SDS_P2;PMS_P1;PMS_P2;Temp;Humidity;BMP_temperature;BMP_pressure;BME280_temperature;BME280_humidity;BME280_pressure;Samples;Min_cycle;Max_cycle;Signal;HPM_P1;HPM_P2
2023/09/21 00:00:16;;;;;;;;;;;;;;;;;;6267864;28;20136;-77
2023/09/21 00:03:18;;;;;;;13.57;9.98;;;;;;;;;;6278364;28;20101;-78
2023/09/21 00:06:20;;;;;;;13.05;9.73;;;;;;;;;;6256706;28;20049;-77
2023/09/21 00:09:24;;;;;;;13.15;9.93;;;;;;;;;;6246633;28;20361;-78
2023/09/21 00:12:26;;;;;;;12.82;10.02;;;;;;;;;;6264585;28;20104;-76
2023/09/21 00:15:28;;;;;;;15.68;9.90;;;;;;;;;;6278097;28;20051;-77
2023/09/21 00:18:30;;;;;;;14.52;10.73;;;;;;;;;;6266042;28;20660;-78
2023/09/21 00:21:32;;;;;;;14.88;11.25;;;;;;;;;;6276805;28;20213;-79
2023/09/21 00:24:35;;;;;;;14.30;10.27;;;;;;;;;;6259809;28;20046;-77
2023/09/21 00:27:39;;;;;;;14.68;10.57;;;;;;;;;;6250443;28;20108;-79
2023/09/21 00:30:41;;;;;;;14.98;10.00;;;;;;;;;;6250551;28;20068;-78
2023/09/21 00:33:43;;;;;;;13.88;10.23;;;;;;;;;;6251542;28;20117;-81
2023/09/21 00:36:45;;;;;;;14.00;10.32;;;;;;;;;;6250259;28;20053;-78
2023/09/21 00:39:50;;;;;;;13.70;10.18;;;;;;;;;;6246836;28;20683;-78
2023/09/21 00:42:52;;;;;;;11.55;9.18;;;;;;;;;;6250011;28;20076;-79
2023/09/21 00:45:57;;;;;;;14.35;9.18;;;;;;;;;;6255027;28;20111;-77
2023/09/21 00:48:58;;;;;;;12.88;9.15;;;;;;;;;;6244927;28;20095;-79
2023/09/21 00:52:00;;;;;;;13.35;9.23;;;;;;;;;;6250308;28;20341;-78
2023/09/21 00:55:05;;;;;;;12.18;9.10;;;;;;;;;;6261177;28;20037;-80
2023/09/21 00:58:08;;;;;;;12.18;9.07;;;;;;;;;;6245979;28;20054;-79
2023/09/21 01:01:18;;;;;;;15.50;9.68;;;;;;;;;;6230531;28;20934;-78
2023/09/21 01:04:21;;;;;;;14.00;9.48;;;;;;;;;;6260322;28;20045;-78
2023/09/21 01:07:26;;;;;;;13.40;10.05;;;;;;;;;;6249870;28;20081;-79
2023/09/21 01:10:29;;;;;;;14.40;8.85;;;;;;;;;;6248507;28;20057;-77
2023/09/21 01:13:31;;;;;;;12.68;10.15;;;;;;;;;;6244752;28;20049;-75
2023/09/21 01:16:33;;;;;;;11.55;9.15;;;;;;;;;;6266004;28;20278;-78
2023/09/21 01:19:34;;;;;;;13.43;10.68;;;;;;;;;;6271360;28;20360;-77
2023/09/21 01:22:36;;;;;;;14.85;10.20;;;;;;;;;;6278222;28;20057;-79
2023/09/21 01:25:41;;;;;;;18.60;10.95;;;;;;;;;;6280266;28;20065;-80
2023/09/21 01:28:44;;;;;;;14.70;10.27;;;;;;;;;;6272640;28;20053;-76
2023/09/21 01:31:48;;;;;;;15.27;10.30;;;;;;;;;;6277079;28;20057;-78
2023/09/21 01:34:50;;;;;;;17.17;10.60;;;;;;;;;;6276660;28;20053;-81
2023/09/21 01:37:52;;;;;;;16.35;11.60;;;;;;;;;;6251158;28;20103;-78
2023/09/21 01:40:58;;;;;;;15.10;11.65;;;;;;;;;;6257711;28;20106;-78
2023/09/21 01:43:59;;;;;;;14.40;10.73;;;;;;;;;;6278241;28;20052;-79
2023/09/21 01:47:01;;;;;;;14.80;11.80;;;;;;;;;;6279756;28;20056;-80
2023/09/21 01:50:06;;;;;;;17.50;12.02;;;;;;;;;;6278237;28;20061;-78
2023/09/21 01:53:09;;;;;;;12.95;10.95;;;;;;;;;;6281950;28;20049;-79
2023/09/21 01:56:12;;;;;;;15.65;10.65;;;;;;;;;;6280041;28;20076;-78
2023/09/21 01:59:14;;;;;;;17.02;11.85;;;;;;;;;;6278676;28;21240;-80
2023/09/21 02:02:20;;;;;;;17.42;11.02;;;;;;;;;;6271998;28;20053;-80
2023/09/21 02:05:23;;;;;;;17.63;10.45;;;;;;;;;;6271781;28;20060;-78
2023/09/21 02:08:25;;;;;;;16.35;11.30;;;;;;;;;;6252590;28;20053;-79
2023/09/21 02:11:29;;;;;;;15.27;10.40;;;;;;;;;;6253120;28;20045;-81
2023/09/21 02:14:31;;;;;;;;;;;;;;;;;;6250781;28;20068;-81
2023/09/21 02:17:32;;;;;;;15.68;10.35;;;;;;;;;;6254771;28;20479;-79
2023/09/21 02:20:36;;;;;;;15.52;11.10;;;;;;;;;;6247445;28;20346;-79
2023/09/21 02:23:38;;;;;;;;;;;;;;;;;;6254784;28;20369;-78
2023/09/21 02:26:42;;;;;;;15.73;10.40;;;;;;;;;;6254311;28;19929;-79
2023/09/21 02:29:44;;;;;;;15.10;11.02;;;;;;;;;;6254261;28;20049;-81
2023/09/21 02:32:48;;;;;;;12.80;10.40;;;;;;;;;;6258510;28;20064;-80
2023/09/21 02:35:50;;;;;;;14.35;9.85;;;;;;;;;;6256416;28;20121;-79
2023/09/21 02:38:51;;;;;;;13.90;9.63;;;;;;;;;;6256316;28;20257;-79
2023/09/21 02:41:54;;;;;;;14.13;9.18;;;;;;;;;;6245820;28;20064;-79
2023/09/21 02:44:56;;;;;;;14.50;10.32;;;;;;;;;;6263748;28;20084;-82
2023/09/21 02:48:00;;;;;;;12.88;9.50;;;;;;;;;;6279039;28;20057;-80
2023/09/21 02:51:03;;;;;;;;;;;;;;;;;;6278385;28;20348;-80
2023/09/21 02:54:07;;;;;;;11.88;8.30;;;;;;;;;;6278106;28;19924;-81
2023/09/21 02:57:12;;;;;;;15.80;9.48;;;;;;;;;;6280663;28;20292;-80
2023/09/21 03:00:26;;;;;;;11.50;8.63;;;;;;;;;;6278094;28;20056;-80
2023/09/21 03:03:30;;;;;;;14.13;9.05;;;;;;;;;;6278043;28;20218;-79
2023/09/21 03:06:33;;;;;;;12.00;8.27;;;;;;;;;;6278052;28;20053;-80
2023/09/21 03:09:37;;;;;;;16.00;9.40;;;;;;;;;;6278686;28;20387;-79
2023/09/21 03:12:40;;;;;;;;;;;;;;;;;;6276532;28;20057;-78
2023/09/21 03:15:43;;;;;;;12.15;9.07;;;;;;;;;;6277827;28;19917;-81
2023/09/21 03:18:47;;;;;;;14.13;8.50;;;;;;;;;;6277975;28;20056;-80
2023/09/21 03:21:49;;;;;;;17.08;8.55;;;;;;;;;;6277740;28;20091;-79
2023/09/21 03:24:54;;;;;;;14.13;8.32;;;;;;;;;;6278944;28;20086;-81
2023/09/21 03:27:58;;;;;;;10.95;8.07;;;;;;;;;;6278667;28;20072;-79
2023/09/21 03:30:59;;;;;;;11.32;7.82;;;;;;;;;;6278210;28;20045;-77
2023/09/21 03:34:02;;;;;;;12.55;7.70;;;;;;;;;;6278381;28;20048;-81
2023/09/21 03:37:04;;;;;;;13.95;8.27;;;;;;;;;;6275540;28;20052;-79
2023/09/21 03:40:08;;;;;;;10.45;7.78;;;;;;;;;;6276903;28;20083;-78
2023/09/21 03:43:12;;;;;;;11.23;8.25;;;;;;;;;;6273966;28;20111;-81
2023/09/21 03:46:14;;;;;;;10.63;7.88;;;;;;;;;;6276777;28;20045;-77
2023/09/21 03:49:17;;;;;;;14.95;8.32;;;;;;;;;;6276032;28;20044;-78
2023/09/21 03:52:19;;;;;;;12.70;7.90;;;;;;;;;;6277976;28;20241;-80
2023/09/21 03:55:21;;;;;;;12.95;7.45;;;;;;;;;;6262398;28;20064;-79
2023/09/21 03:58:28;;;;;;;13.18;7.50;;;;;;;;;;6268199;28;20353;-79
2023/09/21 04:01:30;;;;;;;11.30;7.60;;;;;;;;;;6279193;28;20073;-79
2023/09/21 04:04:32;;;;;;;9.85;7.18;;;;;;;;;;6275742;28;20048;-79
2023/09/21 04:07:34;;;;;;;12.80;7.28;;;;;;;;;;6279583;28;20355;-77
2023/09/21 04:10:36;;;;;;;10.57;7.45;;;;;;;;;;6270877;28;20052;-79
2023/09/21 04:13:39;;;;;;;11.93;7.35;;;;;;;;;;6254452;28;20049;-79
2023/09/21 04:16:41;;;;;;;12.10;6.97;;;;;;;;;;6252556;28;20238;-79
2023/09/21 04:19:44;;;;;;;13.43;7.20;;;;;;;;;;6263605;28;20069;-82
2023/09/21 04:22:47;;;;;;;10.57;6.97;;;;;;;;;;6250474;28;20060;-79
2023/09/21 04:25:49;;;;;;;10.75;7.22;;;;;;;;;;6257757;28;20064;-79
2023/09/21 04:28:52;;;;;;;14.45;7.00;;;;;;;;;;6255476;28;20103;-81
2023/09/21 04:31:54;;;;;;;9.23;6.38;;;;;;;;;;6256813;28;21965;-82
2023/09/21 04:34:58;;;;;;;9.38;6.85;;;;;;;;;;6270848;28;20344;-82
2023/09/21 04:37:59;;;;;;;;;;;;;;;;;;6275508;28;20116;-79
2023/09/21 04:41:01;;;;;;;8.55;6.25;;;;;;;;;;6275825;28;20117;-80
2023/09/21 04:44:05;;;;;;;8.93;6.00;;;;;;;;;;6276622;28;20553;-77
2023/09/21 04:47:06;;;;;;;;;;;;;;;;;;6278057;28;20059;-78
2023/09/21 04:50:10;;;;;;;16.23;6.88;;;;;;;;;;6270000;28;20388;-81
2023/09/21 04:53:13;;;;;;;12.63;7.00;;;;;;;;;;6277964;28;20401;-77
2023/09/21 04:56:17;;;;;;;12.93;7.47;;;;;;;;;;6275343;28;20222;-80
2023/09/21 04:59:20;;;;;;;11.85;7.28;;;;;;;;;;6278011;28;20128;-80
2023/09/21 05:02:22;;;;;;;14.45;7.40;;;;;;;;;;6275765;28;20075;-80
2023/09/21 05:05:26;;;;;;;12.27;8.15;;;;;;;;;;6277117;28;20444;-79
2023/09/21 05:08:29;;;;;;;11.98;7.95;;;;;;;;;;6274084;28;20068;-80
2023/09/21 05:11:38;;;;;;;14.07;8.20;;;;;;;;;;6276236;28;20049;-79
2023/09/21 05:14:41;;;;;;;12.43;9.05;;;;;;;;;;6272836;28;20505;-80
2023/09/21 05:17:43;;;;;;;14.60;8.65;;;;;;;;;;6248129;28;20053;-77
2023/09/21 05:20:45;;;;;;;10.63;8.13;;;;;;;;;;6243304;28;23768;-78
2023/09/21 05:23:47;;;;;;;12.60;8.88;;;;;;;;;;6251530;28;20389;-79
2023/09/21 05:26:49;;;;;;;13.50;8.13;;;;;;;;;;6267923;28;20067;-79
2023/09/21 05:29:52;;;;;;;11.25;7.22;;;;;;;;;;6277467;28;20053;-77
2023/09/21 05:32:56;;;;;;;10.93;7.40;;;;;;;;;;6275559;28;20071;-79
2023/09/21 05:35:58;;;;;;;11.00;7.40;;;;;;;;;;6274994;28;20048;-79
2023/09/21 05:39:01;;;;;;;12.98;7.53;;;;;;;;;;6273398;28;20049;-78
2023/09/21 05:42:04;;;;;;;12.23;7.82;;;;;;;;;;6276826;28;20219;-78
2023/09/21 05:45:08;;;;;;;12.48;7.63;;;;;;;;;;6276221;28;20053;-78
2023/09/21 05:48:15;;;;;;;11.65;7.32;;;;;;;;;;6276235;28;20116;-78
2023/09/21 05:51:17;;;;;;;12.70;7.78;;;;;;;;;;6268952;28;20063;-79
2023/09/21 05:54:20;;;;;;;14.27;7.28;;;;;;;;;;6249187;28;20053;-78
2023/09/21 05:57:22;;;;;;;10.25;7.22;;;;;;;;;;6276838;28;20056;-78
2023/09/21 06:00:25;;;;;;;10.40;6.97;;;;;;;;;;6276513;28;20060;-79
2023/09/21 06:03:27;;;;;;;10.38;7.03;;;;;;;;;;6278195;28;20073;-79
2023/09/21 06:06:31;;;;;;;11.70;7.18;;;;;;;;;;6270990;28;20052;-80
2023/09/21 06:09:33;;;;;;;15.32;7.20;;;;;;;;;;6267597;28;20057;-80
2023/09/21 06:12:35;;;;;;;14.25;7.22;;;;;;;;;;6270007;28;20124;-77
2023/09/21 06:15:38;;;;;;;13.52;7.32;;;;;;;;;;6281125;28;20044;-77
2023/09/21 06:18:41;;;;;;;12.13;7.38;;;;;;;;;;6275290;28;20416;-77
2023/09/21 06:21:43;;;;;;;11.68;7.30;;;;;;;;;;6281575;28;20060;-79
2023/09/21 06:24:44;;;;;;;10.52;6.88;;;;;;;;;;6279776;28;20053;-78
2023/09/21 06:27:47;;;;;;;9.20;6.88;;;;;;;;;;6273497;28;20045;-78
2023/09/21 06:30:51;;;;;;;12.52;7.70;;;;;;;;;;6279730;28;20064;-78
2023/09/21 06:33:53;;;;;;;11.05;7.97;;;;;;;;;;6278880;28;20056;-79
2023/09/21 06:36:56;;;;;;;11.45;7.55;;;;;;;;;;6280298;28;20328;-80
2023/09/21 06:39:59;;;;;;;10.68;7.63;;;;;;;;;;6280398;28;20069;-79
2023/09/21 06:43:02;;;;;;;12.20;7.37;;;;;;;;;;6280181;28;20048;-78
2023/09/21 06:46:05;;;;;;;11.00;7.57;;;;;;;;;;6270903;28;20049;-78
2023/09/21 06:49:07;;;;;;;;;;;;;;;;;;6248808;28;20129;-79
2023/09/21 06:52:08;;;;;;;10.13;7.13;;;;;;;;;;6260101;28;19924;-77
2023/09/21 06:55:14;;;;;;;13.43;7.05;;;;;;;;;;6272086;28;20057;-80
2023/09/21 06:58:16;;;;;;;12.05;7.50;;;;;;;;;;6255502;28;20265;-79
2023/09/21 07:01:19;;;;;;;15.20;7.78;;;;;;;;;;6260016;28;20049;-79
2023/09/21 07:04:21;;;;;;;13.40;8.43;;;;;;;;;;6270745;28;20053;-79
2023/09/21 07:07:23;;;;;;;14.18;7.55;;;;;;;;;;6280461;28;20052;-79
2023/09/21 07:10:25;;;;;;;12.07;8.35;;;;;;;;;;6277542;28;20055;-79
2023/09/21 07:13:27;;;;;;;12.32;8.35;;;;;;;;;;6279005;28;20061;-78
2023/09/21 07:16:30;;;;;;;16.77;9.23;;;;;;;;;;6278116;28;20048;-78
2023/09/21 07:19:33;;;;;;;11.63;8.77;;;;;;;;;;6280252;28;20045;-78
2023/09/21 07:22:35;;;;;;;14.80;9.20;;;;;;;;;;6280175;28;20056;-76
2023/09/21 07:25:37;;;;;;;12.18;8.73;;;;;;;;;;6276941;28;20041;-78
2023/09/21 07:28:39;;;;;;;12.40;8.73;;;;;;;;;;6277605;28;20193;-78
2023/09/21 07:31:43;;;;;;;13.88;8.07;;;;;;;;;;6279568;28;20325;-78
2023/09/21 07:34:48;;;;;;;12.43;7.75;;;;;;;;;;6272485;28;20052;-77
2023/09/21 07:37:51;;;;;;;15.13;8.95;;;;;;;;;;6278592;28;20414;-80
2023/09/21 07:40:54;;;;;;;11.57;8.32;;;;;;;;;;6266278;28;20055;-78
2023/09/21 07:43:55;;;;;;;12.70;8.20;;;;;;;;;;6270027;28;20052;-77
2023/09/21 07:46:59;;;;;;;13.95;8.48;;;;;;;;;;6270386;28;20061;-79
2023/09/21 07:50:02;;;;;;;15.25;8.95;;;;;;;;;;6253241;28;20064;-79
2023/09/21 07:53:04;;;;;;;13.85;9.20;;;;;;;;;;6276991;28;20063;-80
2023/09/21 07:56:08;;;;;;;14.85;9.02;;;;;;;;;;6276459;28;20076;-79
2023/09/21 07:59:10;;;;;;;17.90;9.30;;;;;;;;;;6276379;28;20121;-79
2023/09/21 08:02:13;;;;;;;15.85;10.07;;;;;;;;;;6258257;28;20288;-78
2023/09/21 08:05:15;;;;;;;13.82;9.77;;;;;;;;;;6256356;28;20349;-80
2023/09/21 08:08:17;;;;;;;13.38;9.30;;;;;;;;;;6277947;28;20102;-80
2023/09/21 08:11:19;;;;;;;16.73;9.68;;;;;;;;;;6279647;28;20045;-80
2023/09/21 08:14:21;;;;;;;15.30;9.55;;;;;;;;;;6276785;28;20244;-78
2023/09/21 08:17:25;;;;;;;16.08;9.20;;;;;;;;;;6277073;28;20068;-79
2023/09/21 08:20:26;;;;;;;;;;;;;;;;;;6266459;28;20037;-81
2023/09/21 08:23:28;;;;;;;13.95;8.70;;;;;;;;;;6261935;28;19999;-77
2023/09/21 08:26:32;;;;;;;10.57;8.13;;;;;;;;;;6277751;28;20348;-79
2023/09/21 08:29:34;;;;;;;13.52;7.40;;;;;;;;;;6274821;28;20493;-78
2023/09/21 08:32:39;;;;;;;9.25;7.45;;;;;;;;;;6272200;28;20282;-77
2023/09/21 08:35:43;;;;;;;11.77;7.63;;;;;;;;;;6278167;28;20055;-80
2023/09/21 08:38:45;;;;;;;12.90;7.70;;;;;;;;;;6276885;28;20053;-79
2023/09/21 08:41:48;;;;;;;12.40;7.95;;;;;;;;;;6275004;28;20088;-80
2023/09/21 08:44:50;;;;;;;;;;;;;;;;;;6278410;28;20059;-79
2023/09/21 08:47:53;;;;;;;9.80;6.90;;;;;;;;;;6276276;28;20000;-78
2023/09/21 08:50:55;;;;;;;11.18;7.35;;;;;;;;;;6277259;28;20120;-77
2023/09/21 08:53:59;;;;;;;10.00;6.57;;;;;;;;;;6276134;28;20124;-81
2023/09/21 08:57:02;;;;;;;8.27;6.53;;;;;;;;;;6275581;28;20053;-79
2023/09/21 09:00:06;;;;;;;11.93;7.70;;;;;;;;;;6278853;28;20335;-82
2023/09/21 09:03:10;;;;;;;8.90;6.03;;;;;;;;;;6269175;28;20087;-79
2023/09/21 09:06:12;;;;;;;10.32;6.75;;;;;;;;;;6268973;28;20041;-78
2023/09/21 09:09:15;;;;;;;12.07;6.22;;;;;;;;;;6273546;28;20056;-77
2023/09/21 09:12:24;;;;;;;8.82;5.38;;;;;;;;;;6272101;28;20056;-82
2023/09/21 09:15:34;;;;;;;6.82;5.40;;;;;;;;;;6273985;28;20114;-78
2023/09/21 09:18:38;;;;;;;11.52;5.18;;;;;;;;;;6276144;28;20056;-80
2023/09/21 09:21:52;;;;;;;7.43;5.35;;;;;;;;;;6273425;28;20063;-83
2023/09/21 09:24:55;;;;;;;8.27;5.20;;;;;;;;;;6226468;28;20120;-79
2023/09/21 09:27:57;;;;;;;11.07;4.93;;;;;;;;;;6259545;28;20116;-79
2023/09/21 09:30:59;;;;;;;9.18;4.85;;;;;;;;;;6262539;28;20405;-80
2023/09/21 09:34:04;;;;;;;7.72;4.88;;;;;;;;;;6269414;28;20063;-79
2023/09/21 09:37:06;;;;;;;8.98;4.97;;;;;;;;;;6280882;28;20102;-80
2023/09/21 09:40:18;;;;;;;8.90;5.22;;;;;;;;;;6281641;28;20063;-78
2023/09/21 09:43:21;;;;;;;8.05;4.30;;;;;;;;;;6280005;28;20044;-80
2023/09/21 09:46:23;;;;;;;7.32;4.93;;;;;;;;;;6268566;28;20041;-78
2023/09/21 09:49:29;;;;;;;7.20;4.67;;;;;;;;;;6280254;28;20073;-79
2023/09/21 09:52:31;;;;;;;7.15;4.80;;;;;;;;;;6280844;28;20065;-80
2023/09/21 09:55:36;;;;;;;8.23;5.03;;;;;;;;;;6278139;28;20132;-78
2023/09/21 09:58:41;;;;;;;9.68;5.10;;;;;;;;;;6280273;28;20048;-78
2023/09/21 10:01:46;;;;;;;14.07;5.00;;;;;;;;;;6275239;28;20057;-80
2023/09/21 10:04:51;;;;;;;9.13;4.15;;;;;;;;;;6280875;28;20049;-78
2023/09/21 10:07:56;;;;;;;11.07;4.97;;;;;;;;;;6278953;28;20060;-79
2023/09/21 10:11:01;;;;;;;9.13;5.10;;;;;;;;;;6278675;28;20171;-81
2023/09/21 10:14:03;;;;;;;6.70;4.68;;;;;;;;;;6276762;28;20053;-79
2023/09/21 10:17:06;;;;;;;11.55;5.55;;;;;;;;;;6281309;28;20150;-77
2023/09/21 10:20:14;;;;;;;11.80;4.90;;;;;;;;;;6279769;28;20052;-80
2023/09/21 10:23:17;;;;;;;11.15;5.00;;;;;;;;;;6278428;28;20060;-78
2023/09/21 10:26:21;;;;;;;8.23;4.63;;;;;;;;;;6278566;28;20063;-78
2023/09/21 10:29:29;;;;;;;11.65;4.93;;;;;;;;;;6277255;28;20471;-79
2023/09/21 10:32:42;;;;;;;10.20;5.53;;;;;;;;;;6270057;28;20048;-78
2023/09/21 10:35:46;;;;;;;10.32;5.15;;;;;;;;;;6269284;28;20060;-78
2023/09/21 10:39:20;;;;;;;9.35;5.20;;;;;;;;;;6278412;28;20254;-78
2023/09/21 10:42:33;;;;;;;9.30;5.20;;;;;;;;;;6279923;28;20052;-79
2023/09/21 10:45:55;;;;;;;10.32;5.10;;;;;;;;;;6280101;28;20061;-78
2023/09/21 10:48:59;;;;;;;10.38;5.60;;;;;;;;;;6254486;28;20049;-80
2023/09/21 10:52:02;;;;;;;8.90;5.38;;;;;;;;;;6273522;28;20110;-82
2023/09/21 10:55:05;;;;;;;11.30;5.32;;;;;;;;;;6255893;28;20053;-78
2023/09/21 10:58:07;;;;;;;9.02;4.88;;;;;;;;;;6253631;28;20164;-90
2023/09/21 11:01:09;;;;;;;7.70;4.65;;;;;;;;;;6260856;28;20067;-78
2023/09/21 11:04:11;;;;;;;9.27;5.07;;;;;;;;;;6255125;28;20330;-76
2023/09/21 11:07:16;;;;;;;7.43;5.30;;;;;;;;;;6252693;28;20061;-76
2023/09/21 11:10:18;;;;;;;8.70;7.10;;;;;;;;;;6254356;28;20061;-77
2023/09/21 11:13:20;;;;;;;7.70;5.30;;;;;;;;;;6257519;28;20049;-79
2023/09/21 11:16:22;;;;;;;12.90;6.03;;;;;;;;;;6256345;28;20056;-77
2023/09/21 11:19:24;;;;;;;8.35;5.32;;;;;;;;;;6250557;28;20049;-78
2023/09/21 11:22:27;;;;;;;10.10;5.70;;;;;;;;;;6256914;28;20060;-76
2023/09/21 11:25:29;;;;;;;8.35;5.18;;;;;;;;;;6257216;28;20163;-77
2023/09/21 11:28:33;;;;;;;6.72;4.78;;;;;;;;;;6255699;28;20057;-75
2023/09/21 11:31:35;;;;;;;7.90;4.60;;;;;;;;;;6254150;28;20060;-74
2023/09/21 11:34:39;;;;;;;9.18;5.03;;;;;;;;;;6256822;28;20049;-74
2023/09/21 11:37:42;;;;;;;6.32;4.13;;;;;;;;;;6260871;28;20060;-74
2023/09/21 11:40:44;;;;;;;6.07;3.42;;;;;;;;;;6261602;28;20044;-75
2023/09/21 11:43:45;;;;;;;10.02;5.45;;;;;;;;;;6287455;28;20055;-74
2023/09/21 11:46:48;;;;;;;9.45;4.45;;;;;;;;;;6274818;28;20045;-74
2023/09/21 11:49:53;;;;;;;6.47;4.22;;;;;;;;;;6263525;28;20052;-74
2023/09/21 11:52:56;;;;;;;7.22;4.03;;;;;;;;;;6280755;28;20286;-74
2023/09/21 11:55:58;;;;;;;7.85;4.07;;;;;;;;;;6280092;28;20279;-75
2023/09/21 11:59:06;;;;;;;7.72;4.07;;;;;;;;;;6279382;28;20228;-73
2023/09/21 12:02:09;;;;;;;8.10;5.18;;;;;;;;;;6277452;28;20044;-77
2023/09/21 12:05:11;;;;;;;10.48;5.25;;;;;;;;;;6277962;28;20080;-77
2023/09/21 12:08:15;;;;;;;7.13;5.30;;;;;;;;;;6269259;28;20045;-77
2023/09/21 12:11:17;;;;;;;9.02;5.05;;;;;;;;;;6278271;28;20100;-77
2023/09/21 12:14:18;;;;;;;6.88;4.63;;;;;;;;;;6278552;28;20074;-77
2023/09/21 12:17:20;;;;;;;8.55;4.25;;;;;;;;;;6278677;28;20075;-77
2023/09/21 12:20:23;;;;;;;8.00;4.90;;;;;;;;;;6279702;28;20056;-77
2023/09/21 12:23:26;;;;;;;7.78;5.07;;;;;;;;;;6280269;28;20045;-77
2023/09/21 12:26:28;;;;;;;8.60;4.72;;;;;;;;;;6255383;28;20041;-77
2023/09/21 12:29:30;;;;;;;8.77;4.10;;;;;;;;;;6243833;28;20061;-77
2023/09/21 12:32:32;;;;;;;7.18;4.70;;;;;;;;;;6254286;28;20268;-77
2023/09/21 12:35:35;;;;;;;11.43;5.20;;;;;;;;;;6278768;28;20110;-77
2023/09/21 12:38:40;;;;;;;8.98;4.40;;;;;;;;;;6277103;28;20115;-76
2023/09/21 12:41:43;;;;;;;11.93;5.70;;;;;;;;;;6278815;28;20113;-76
2023/09/21 12:44:45;;;;;;;;;;;;;;;;;;6277259;28;20051;-77
2023/09/21 12:47:46;;;;;;;11.00;4.38;;;;;;;;;;6279044;28;19975;-77
2023/09/21 12:50:48;;;;;;;9.70;4.88;;;;;;;;;;6244335;28;20049;-77
2023/09/21 12:53:52;;;;;;;9.52;5.43;;;;;;;;;;6248455;28;20369;-78
2023/09/21 12:56:53;;;;;;;6.57;4.25;;;;;;;;;;6278183;28;20051;-77
2023/09/21 12:59:55;;;;;;;7.53;4.93;;;;;;;;;;6271551;28;20116;-76
2023/09/21 13:02:57;;;;;;;7.10;4.55;;;;;;;;;;6273815;28;20057;-77
2023/09/21 13:05:59;;;;;;;7.78;4.50;;;;;;;;;;6275768;28;20053;-77
2023/09/21 13:09:02;;;;;;;8.35;4.30;;;;;;;;;;6265539;28;20051;-77
2023/09/21 13:12:04;;;;;;;;;;;;;;;;;;6282190;28;20122;-77
2023/09/21 13:15:06;;;;;;;8.43;4.53;;;;;;;;;;6282485;28;20004;-77
2023/09/21 13:18:10;;;;;;;10.40;4.43;;;;;;;;;;6277742;28;20256;-77
2023/09/21 13:21:12;;;;;;;8.00;4.72;;;;;;;;;;6278582;28;21909;-78
2023/09/21 13:24:15;;;;;;;9.18;4.38;;;;;;;;;;6267417;28;20330;-77
2023/09/21 13:27:17;;;;;;;7.68;4.57;;;;;;;;;;6255050;28;20288;-77
2023/09/21 13:30:19;;;;;;;7.88;5.25;;;;;;;;;;6273711;28;20116;-77
2023/09/21 13:33:21;;;;;;;8.20;5.03;;;;;;;;;;6277444;28;20049;-78
2023/09/21 13:36:24;;;;;;;8.18;5.43;;;;;;;;;;6277561;28;20107;-78
2023/09/21 13:39:29;;;;;;;13.27;6.50;;;;;;;;;;6277747;28;20069;-78
2023/09/21 13:42:33;;;;;;;15.07;6.63;;;;;;;;;;6266792;28;20080;-77
2023/09/21 13:45:35;;;;;;;;;;;;;;;;;;6277557;28;20053;-79
2023/09/21 13:48:38;;;;;;;12.55;7.53;;;;;;;;;;6279766;28;19920;-76
2023/09/21 13:51:41;;;;;;;13.60;8.00;;;;;;;;;;6254337;28;20075;-78
2023/09/21 13:54:46;;;;;;;10.60;7.70;;;;;;;;;;6255571;28;20041;-80
2023/09/21 13:57:48;;;;;;;12.60;7.97;;;;;;;;;;6257692;28;20053;-79
2023/09/21 14:00:52;;;;;;;14.55;8.80;;;;;;;;;;6250814;28;20056;-82
2023/09/21 14:03:54;;;;;;;14.30;8.82;;;;;;;;;;6277866;28;20230;-82
2023/09/21 14:06:56;;;;;;;17.70;10.65;;;;;;;;;;6261227;28;20266;-79
2023/09/21 14:09:59;;;;;;;14.38;9.25;;;;;;;;;;6259716;28;20064;-82
2023/09/21 14:13:01;;;;;;;16.20;9.95;;;;;;;;;;6276999;28;20237;-80
2023/09/21 14:16:06;;;;;;;13.95;8.60;;;;;;;;;;6278275;28;20068;-79
2023/09/21 14:19:08;;;;;;;14.57;10.00;;;;;;;;;;6281024;28;20096;-82
2023/09/21 14:22:10;;;;;;;15.15;9.88;;;;;;;;;;6270303;28;20112;-80
2023/09/21 14:25:14;;;;;;;15.18;9.32;;;;;;;;;;6276032;28;20099;-81
2023/09/21 14:28:16;;;;;;;15.40;9.35;;;;;;;;;;6277312;28;20091;-80
2023/09/21 14:31:19;;;;;;;16.63;10.15;;;;;;;;;;6278160;28;20045;-81
2023/09/21 14:34:20;;;;;;;17.25;10.02;;;;;;;;;;6280234;28;20429;-77
2023/09/21 14:37:23;;;;;;;15.80;9.40;;;;;;;;;;6281159;28;20219;-81
2023/09/21 14:40:26;;;;;;;18.05;10.30;;;;;;;;;;6282447;28;20044;-81
2023/09/21 14:43:28;;;;;;;16.95;8.20;;;;;;;;;;6280555;28;20116;-80
2023/09/21 14:46:30;;;;;;;16.70;8.88;;;;;;;;;;6279206;28;20057;-79
2023/09/21 14:49:32;;;;;;;12.70;7.05;;;;;;;;;;6279804;28;20407;-78
2023/09/21 14:52:34;;;;;;;11.23;7.07;;;;;;;;;;6281249;28;20053;-82
2023/09/21 14:55:38;;;;;;;12.63;8.48;;;;;;;;;;6279253;28;20364;-80
2023/09/21 14:58:41;;;;;;;16.77;8.23;;;;;;;;;;6278392;28;20057;-79
2023/09/21 15:01:43;;;;;;;10.48;7.13;;;;;;;;;;6254470;28;20385;-81
2023/09/21 15:04:45;;;;;;;8.65;6.03;;;;;;;;;;6266772;28;20285;-77
2023/09/21 15:07:47;;;;;;;11.80;7.45;;;;;;;;;;6257836;28;20049;-78
2023/09/21 15:10:53;;;;;;;14.18;6.88;;;;;;;;;;6254633;28;20400;-79
2023/09/21 15:13:55;;;;;;;12.25;6.38;;;;;;;;;;6260494;28;20129;-81
2023/09/21 15:16:57;;;;;;;13.95;6.57;;;;;;;;;;6276395;28;20053;-77
2023/09/21 15:19:59;;;;;;;11.73;7.07;;;;;;;;;;6272773;28;20224;-83
2023/09/21 15:23:02;;;;;;;10.40;6.07;;;;;;;;;;6252678;28;20142;-80
2023/09/21 15:26:05;;;;;;;11.10;5.93;;;;;;;;;;6253429;28;20111;-78
2023/09/21 15:29:07;;;;;;;9.65;5.85;;;;;;;;;;6255529;28;20306;-79
2023/09/21 15:32:12;;;;;;;12.70;7.32;;;;;;;;;;6253961;28;20049;-80
2023/09/21 15:35:14;;;;;;;10.43;6.47;;;;;;;;;;6257367;28;20049;-79
2023/09/21 15:38:16;;;;;;;11.55;7.35;;;;;;;;;;6253914;28;20053;-80
2023/09/21 15:41:19;;;;;;;9.45;6.53;;;;;;;;;;6264443;28;20041;-80
2023/09/21 15:44:21;;;;;;;11.35;7.43;;;;;;;;;;6273773;28;20112;-79
2023/09/21 15:47:23;;;;;;;12.63;7.40;;;;;;;;;;6273888;28;20061;-78
2023/09/21 15:50:25;;;;;;;12.07;6.75;;;;;;;;;;6268623;28;20057;-79
2023/09/21 15:53:28;;;;;;;11.80;7.43;;;;;;;;;;6275403;28;20052;-79
2023/09/21 15:56:32;;;;;;;11.13;7.28;;;;;;;;;;6247380;28;20065;-78
2023/09/21 15:59:35;;;;;;;12.80;7.22;;;;;;;;;;6253902;28;20152;-81
2023/09/21 16:02:37;;;;;;;10.00;6.07;;;;;;;;;;6243382;28;20059;-82
2023/09/21 16:05:39;;;;;;;10.73;7.00;;;;;;;;;;6255422;28;20060;-81
2023/09/21 16:08:41;;;;;;;10.77;6.93;;;;;;;;;;6254562;28;20049;-82
2023/09/21 16:11:44;;;;;;;13.55;8.38;;;;;;;;;;6210543;28;20219;-79
2023/09/21 16:14:47;;;;;;;14.05;8.13;;;;;;;;;;6250171;28;20341;-77
2023/09/21 16:17:48;;;;;;;14.48;8.50;;;;;;;;;;6248702;28;20222;-80
2023/09/21 16:20:50;;;;;;;16.48;9.23;;;;;;;;;;6242174;28;20245;-81
2023/09/21 16:23:53;;;;;;;17.00;9.68;;;;;;;;;;6240673;28;20059;-80
2023/09/21 16:26:58;;;;;;;13.30;8.60;;;;;;;;;;6240288;28;20060;-78
2023/09/21 16:30:00;;;;;;;18.67;10.18;;;;;;;;;;6263450;28;20060;-80
2023/09/21 16:33:03;;;;;;;16.45;10.63;;;;;;;;;;6265877;28;20399;-79
2023/09/21 16:36:06;;;;;;;14.73;9.80;;;;;;;;;;6275151;28;20272;-78
2023/09/21 16:39:08;;;;;;;14.20;9.20;;;;;;;;;;6276155;28;20336;-80
2023/09/21 16:42:11;;;;;;;17.63;10.75;;;;;;;;;;6277104;28;20090;-81
2023/09/21 16:45:13;;;;;;;20.23;11.30;;;;;;;;;;6277864;28;20345;-80
2023/09/21 16:48:15;;;;;;;16.33;10.82;;;;;;;;;;6274461;28;20041;-81
2023/09/21 16:51:17;;;;;;;18.38;10.57;;;;;;;;;;6276144;28;20057;-79
2023/09/21 16:54:19;;;;;;;13.40;9.80;;;;;;;;;;6278263;28;20053;-80
2023/09/21 16:57:22;;;;;;;17.50;10.50;;;;;;;;;;6275399;28;20139;-79
2023/09/21 17:00:25;;;;;;;17.33;10.13;;;;;;;;;;6278123;28;20049;-79
2023/09/21 17:03:27;;;;;;;15.80;10.98;;;;;;;;;;6273155;28;20112;-81
2023/09/21 17:06:29;;;;;;;15.80;10.02;;;;;;;;;;6275165;28;20073;-80
2023/09/21 17:09:31;;;;;;;35.47;21.00;;;;;;;;;;6275120;28;20045;-76
2023/09/21 17:12:34;;;;;;;53.55;29.92;;;;;;;;;;6279572;28;20044;-78
2023/09/21 17:15:36;;;;;;;;;;;;;;;;;;6279237;28;20045;-76
2023/09/21 17:18:38;;;;;;;52.35;31.55;;;;;;;;;;6274646;28;20221;-79
2023/09/21 17:21:40;;;;;;;18.40;10.10;;;;;;;;;;6267288;28;20345;-79
2023/09/21 17:24:43;;;;;;;16.40;9.50;;;;;;;;;;6244580;28;20057;-78
2023/09/21 17:27:46;;;;;;;15.73;9.05;;;;;;;;;;6273679;28;20349;-80
2023/09/21 17:30:48;;;;;;;15.52;9.57;;;;;;;;;;6252630;28;20202;-79
2023/09/21 17:33:50;;;;;;;13.35;8.55;;;;;;;;;;6249734;28;20085;-77
2023/09/21 17:36:52;;;;;;;17.15;8.88;;;;;;;;;;6250695;28;20063;-78
2023/09/21 17:39:54;;;;;;;12.80;8.15;;;;;;;;;;6243191;28;20063;-77
2023/09/21 17:43:00;;;;;;;11.45;7.80;;;;;;;;;;6250558;28;20061;-79
2023/09/21 17:46:02;;;;;;;11.75;7.45;;;;;;;;;;6254531;28;20040;-79
2023/09/21 17:49:05;;;;;;;15.18;8.07;;;;;;;;;;6258493;28;20057;-79
2023/09/21 17:52:07;;;;;;;10.38;7.75;;;;;;;;;;6255849;28;20052;-78
2023/09/21 17:55:09;;;;;;;14.15;8.13;;;;;;;;;;6256345;28;20099;-82
2023/09/21 17:58:13;;;;;;;15.63;7.53;;;;;;;;;;6278579;28;20218;-77
2023/09/21 18:01:15;;;;;;;11.93;7.28;;;;;;;;;;6278483;28;20170;-79
2023/09/21 18:04:18;;;;;;;12.70;6.72;;;;;;;;;;6275752;28;20053;-81
2023/09/21 18:07:20;;;;;;;9.10;6.68;;;;;;;;;;6277989;28;20044;-79